sensor_id;sensor_type;location;lat;lon;timestamp;temperature;humidity
1468;DHT22;727;48.892;9.544;2023-09-12T00:01:03;16.70;99.90
1468;DHT22;727;48.892;9.544;2023-09-12T00:03:32;16.60;99.90
1468;DHT22;727;48.892;9.544;2023-09-12T00:06:02;16.60;99.90
1468;DHT22;727;48.892;9.544;2023-09-12T00:08:29;16.50;99.90
1468;DHT22;727;48.892;9.544;2023-09-12T00:11:03;16.50;99.90
1468;DHT22;727;48.892;9.544;2023-09-12T00:13:32;16.50;99.90
1468;DHT22;727;48.892;9.544;2023-09-12T00:15:59;16.40;99.90
1468;DHT22;727;48.892;9.544;2023-09-12T00:18:26;16.40;99.90
1468;DHT22;727;48.892;9.544;2023-09-12T00:20:53;16.40;99.90
1468;DHT22;727;48.892;9.544;2023-09-12T00:23:22;16.40;99.90
1468;DHT22;727;48.892;9.544;2023-09-12T00:25:49;16.40;99.90
1468;DHT22;727;48.892;9.544;2023-09-12T00:28:17;16.30;99.90
1468;DHT22;727;48.892;9.544;2023-09-12T00:30:43;16.40;99.90
1468;DHT22;727;48.892;9.544;2023-09-12T00:33:10;16.40;99.90
1468;DHT22;727;48.892;9.544;2023-09-12T00:35:37;16.30;99.90
1468;DHT22;727;48.892;9.544;2023-09-12T00:38:04;16.30;99.90
1468;DHT22;727;48.892;9.544;2023-09-12T00:40:33;16.30;99.90
1468;DHT22;727;48.892;9.544;2023-09-12T00:43:00;16.30;99.90
1468;DHT22;727;48.892;9.544;2023-09-12T00:45:27;16.30;99.90
1468;DHT22;727;48.892;9.544;2023-09-12T00:47:54;16.30;99.90
1468;DHT22;727;48.892;9.544;2023-09-12T00:50:23;16.30;99.90
1468;DHT22;727;48.892;9.544;2023-09-12T00:52:51;16.20;99.90
1468;DHT22;727;48.892;9.544;2023-09-12T00:55:19;16.20;99.90
1468;DHT22;727;48.892;9.544;2023-09-12T00:57:47;16.10;99.90
1468;DHT22;727;48.892;9.544;2023-09-12T01:00:15;16.10;99.90
1468;DHT22;727;48.892;9.544;2023-09-12T01:02:44;16.10;99.90
1468;DHT22;727;48.892;9.544;2023-09-12T01:05:14;16.10;99.90
1468;DHT22;727;48.892;9.544;2023-09-12T01:07:43;16.10;99.90
1468;DHT22;727;48.892;9.544;2023-09-12T01:10:10;16.10;99.90
1468;DHT22;727;48.892;9.544;2023-09-12T01:12:37;16.10;99.90
1468;DHT22;727;48.892;9.544;2023-09-12T01:15:06;16.10;99.90
1468;DHT22;727;48.892;9.544;2023-09-12T01:17:39;16.10;99.90
1468;DHT22;727;48.892;9.544;2023-09-12T01:20:11;16.10;99.90
1468;DHT22;727;48.892;9.544;2023-09-12T01:22:56;16.10;99.90
1468;DHT22;727;48.892;9.544;2023-09-12T01:25:42;16.10;99.90
1468;DHT22;727;48.892;9.544;2023-09-12T01:28:14;16.10;99.90
1468;DHT22;727;48.892;9.544;2023-09-12T01:30:45;16.10;99.90
1468;DHT22;727;48.892;9.544;2023-09-12T01:33:12;16.10;99.90
1468;DHT22;727;48.892;9.544;2023-09-12T01:35:39;16.00;99.90
1468;DHT22;727;48.892;9.544;2023-09-12T01:38:06;15.90;99.90
1468;DHT22;727;48.892;9.544;2023-09-12T01:40:42;15.80;99.90
1468;DHT22;727;48.892;9.544;2023-09-12T01:43:10;15.80;99.90
1468;DHT22;727;48.892;9.544;2023-09-12T01:45:40;15.80;99.90
1468;DHT22;727;48.892;9.544;2023-09-12T01:48:07;15.80;99.90
1468;DHT22;727;48.892;9.544;2023-09-12T01:50:36;15.70;99.90
1468;DHT22;727;48.892;9.544;2023-09-12T01:53:03;15.70;99.90
1468;DHT22;727;48.892;9.544;2023-09-12T01:55:31;15.80;99.90
1468;DHT22;727;48.892;9.544;2023-09-12T01:57:58;15.80;99.90
1468;DHT22;727;48.892;9.544;2023-09-12T02:00:25;15.80;99.90
1468;DHT22;727;48.892;9.544;2023-09-12T02:02:53;15.80;99.90
1468;DHT22;727;48.892;9.544;2023-09-12T02:05:22;15.80;99.90
1468;DHT22;727;48.892;9.544;2023-09-12T02:07:49;15.80;99.90
1468;DHT22;727;48.892;9.544;2023-09-12T02:10:16;15.80;99.90
1468;DHT22;727;48.892;9.544;2023-09-12T02:12:43;15.80;99.90
1468;DHT22;727;48.892;9.544;2023-09-12T02:15:10;15.80;99.90
1468;DHT22;727;48.892;9.544;2023-09-12T02:17:37;15.80;99.90
1468;DHT22;727;48.892;9.544;2023-09-12T02:20:08;15.70;99.90
1468;DHT22;727;48.892;9.544;2023-09-12T02:22:35;15.70;99.90
1468;DHT22;727;48.892;9.544;2023-09-12T02:25:03;15.60;99.90
1468;DHT22;727;48.892;9.544;2023-09-12T02:27:31;15.60;99.90
1468;DHT22;727;48.892;9.544;2023-09-12T02:29:57;15.60;99.90
1468;DHT22;727;48.892;9.544;2023-09-12T02:32:24;15.60;99.90
1468;DHT22;727;48.892;9.544;2023-09-12T02:34:51;15.50;99.90
1468;DHT22;727;48.892;9.544;2023-09-12T02:37:20;15.50;99.90
1468;DHT22;727;48.892;9.544;2023-09-12T02:39:47;15.50;99.90
1468;DHT22;727;48.892;9.544;2023-09-12T02:42:13;15.50;99.90
1468;DHT22;727;48.892;9.544;2023-09-12T02:44:40;15.50;99.90
1468;DHT22;727;48.892;9.544;2023-09-12T02:47:07;15.50;99.90
1468;DHT22;727;48.892;9.544;2023-09-12T02:49:34;15.50;99.90
1468;DHT22;727;48.892;9.544;2023-09-12T02:52:01;15.50;99.90
1468;DHT22;727;48.892;9.544;2023-09-12T02:54:29;15.50;99.90
1468;DHT22;727;48.892;9.544;2023-09-12T02:56:56;15.50;99.90
1468;DHT22;727;48.892;9.544;2023-09-12T02:59:23;15.50;99.90
1468;DHT22;727;48.892;9.544;2023-09-12T03:01:50;15.50;99.90
1468;DHT22;727;48.892;9.544;2023-09-12T03:04:17;15.50;99.90
1468;DHT22;727;48.892;9.544;2023-09-12T03:06:44;15.50;99.90
1468;DHT22;727;48.892;9.544;2023-09-12T03:09:10;15.50;99.90
1468;DHT22;727;48.892;9.544;2023-09-12T03:11:39;15.50;99.90
1468;DHT22;727;48.892;9.544;2023-09-12T03:14:06;15.50;99.90
1468;DHT22;727;48.892;9.544;2023-09-12T03:16:33;15.50;99.90
1468;DHT22;727;48.892;9.544;2023-09-12T03:19:01;15.40;99.90
1468;DHT22;727;48.892;9.544;2023-09-12T03:21:28;15.40;99.90
1468;DHT22;727;48.892;9.544;2023-09-12T03:23:55;15.40;99.90
1468;DHT22;727;48.892;9.544;2023-09-12T03:26:22;15.40;99.90
1468;DHT22;727;48.892;9.544;2023-09-12T03:28:50;15.30;99.90
1468;DHT22;727;48.892;9.544;2023-09-12T03:31:17;15.30;99.90
1468;DHT22;727;48.892;9.544;2023-09-12T03:33:44;15.30;99.90
1468;DHT22;727;48.892;9.544;2023-09-12T03:36:15;15.30;99.90
1468;DHT22;727;48.892;9.544;2023-09-12T03:38:42;15.30;99.90
1468;DHT22;727;48.892;9.544;2023-09-12T03:41:09;15.30;99.90
1468;DHT22;727;48.892;9.544;2023-09-12T03:43:38;15.20;99.90
1468;DHT22;727;48.892;9.544;2023-09-12T03:46:06;15.10;99.90
1468;DHT22;727;48.892;9.544;2023-09-12T03:48:33;15.10;99.90
1468;DHT22;727;48.892;9.544;2023-09-12T03:51:02;15.10;99.90
1468;DHT22;727;48.892;9.544;2023-09-12T03:53:29;15.00;99.90
1468;DHT22;727;48.892;9.544;2023-09-12T03:55:57;15.00;99.90
1468;DHT22;727;48.892;9.544;2023-09-12T03:58:23;15.00;99.90
1468;DHT22;727;48.892;9.544;2023-09-12T04:00:50;15.00;99.90
1468;DHT22;727;48.892;9.544;2023-09-12T04:03:19;15.00;99.90
1468;DHT22;727;48.892;9.544;2023-09-12T04:05:46;15.00;99.90
1468;DHT22;727;48.892;9.544;2023-09-12T04:08:14;15.00;99.90
1468;DHT22;727;48.892;9.544;2023-09-12T04:10:41;15.00;99.90
1468;DHT22;727;48.892;9.544;2023-09-12T04:13:08;15.00;99.90
1468;DHT22;727;48.892;9.544;2023-09-12T04:15:35;14.90;99.90
1468;DHT22;727;48.892;9.544;2023-09-12T04:18:02;14.90;99.90
1468;DHT22;727;48.892;9.544;2023-09-12T04:20:30;14.90;99.90
1468;DHT22;727;48.892;9.544;2023-09-12T04:22:57;14.90;99.90
1468;DHT22;727;48.892;9.544;2023-09-12T04:25:24;14.80;99.90
1468;DHT22;727;48.892;9.544;2023-09-12T04:27:52;14.80;99.90
1468;DHT22;727;48.892;9.544;2023-09-12T04:30:19;14.80;99.90
1468;DHT22;727;48.892;9.544;2023-09-12T04:32:45;14.80;99.90
1468;DHT22;727;48.892;9.544;2023-09-12T04:35:12;14.80;99.90
1468;DHT22;727;48.892;9.544;2023-09-12T04:37:40;14.80;99.90
1468;DHT22;727;48.892;9.544;2023-09-12T04:40:09;14.80;99.90
1468;DHT22;727;48.892;9.544;2023-09-12T04:42:36;14.80;99.90
1468;DHT22;727;48.892;9.544;2023-09-12T04:45:03;14.80;99.90
1468;DHT22;727;48.892;9.544;2023-09-12T04:47:31;14.80;99.90
1468;DHT22;727;48.892;9.544;2023-09-12T04:49:58;14.80;99.90
1468;DHT22;727;48.892;9.544;2023-09-12T04:52:26;14.80;99.90
1468;DHT22;727;48.892;9.544;2023-09-12T04:54:55;14.90;99.90
1468;DHT22;727;48.892;9.544;2023-09-12T04:57:22;14.90;99.90
1468;DHT22;727;48.892;9.544;2023-09-12T04:59:51;14.90;99.90
1468;DHT22;727;48.892;9.544;2023-09-12T05:02:21;14.90;99.90
1468;DHT22;727;48.892;9.544;2023-09-12T05:04:52;14.90;99.90
1468;DHT22;727;48.892;9.544;2023-09-12T05:07:19;14.90;99.90
1468;DHT22;727;48.892;9.544;2023-09-12T05:09:45;14.90;99.90
1468;DHT22;727;48.892;9.544;2023-09-12T05:12:14;15.00;99.90
1468;DHT22;727;48.892;9.544;2023-09-12T05:14:43;15.10;99.90
1468;DHT22;727;48.892;9.544;2023-09-12T05:17:12;15.20;99.90
1468;DHT22;727;48.892;9.544;2023-09-12T05:19:39;15.30;99.90
1468;DHT22;727;48.892;9.544;2023-09-12T05:22:14;15.50;99.90
1468;DHT22;727;48.892;9.544;2023-09-12T05:24:41;15.60;99.90
1468;DHT22;727;48.892;9.544;2023-09-12T05:27:08;15.80;99.90
1468;DHT22;727;48.892;9.544;2023-09-12T05:29:37;15.80;99.90
1468;DHT22;727;48.892;9.544;2023-09-12T05:32:05;16.00;99.90
1468;DHT22;727;48.892;9.544;2023-09-12T05:34:33;16.10;99.90
1468;DHT22;727;48.892;9.544;2023-09-12T05:37:00;16.10;99.90
1468;DHT22;727;48.892;9.544;2023-09-12T05:39:29;16.30;99.90
1468;DHT22;727;48.892;9.544;2023-09-12T05:41:55;16.50;99.90
1468;DHT22;727;48.892;9.544;2023-09-12T05:44:23;17.20;99.90
1468;DHT22;727;48.892;9.544;2023-09-12T05:46:51;18.60;99.90
1468;DHT22;727;48.892;9.544;2023-09-12T05:49:19;19.80;99.90
1468;DHT22;727;48.892;9.544;2023-09-12T05:51:46;21.00;99.90
1468;DHT22;727;48.892;9.544;2023-09-12T05:54:13;21.80;99.90
1468;DHT22;727;48.892;9.544;2023-09-12T05:56:41;22.20;99.60
1468;DHT22;727;48.892;9.544;2023-09-12T05:59:08;22.20;97.80
1468;DHT22;727;48.892;9.544;2023-09-12T06:01:34;21.60;98.20
1468;DHT22;727;48.892;9.544;2023-09-12T06:04:03;21.00;99.90
1468;DHT22;727;48.892;9.544;2023-09-12T06:06:30;21.60;99.90
1468;DHT22;727;48.892;9.544;2023-09-12T06:08:57;22.80;98.50
1468;DHT22;727;48.892;9.544;2023-09-12T06:11:24;23.90;96.20
1468;DHT22;727;48.892;9.544;2023-09-12T06:13:51;24.90;94.30
1468;DHT22;727;48.892;9.544;2023-09-12T06:16:17;26.30;91.40
1468;DHT22;727;48.892;9.544;2023-09-12T06:18:44;27.00;88.20
1468;DHT22;727;48.892;9.544;2023-09-12T06:21:12;27.10;85.00
1468;DHT22;727;48.892;9.544;2023-09-12T06:23:39;25.70;86.70
1468;DHT22;727;48.892;9.544;2023-09-12T06:26:06;24.30;90.40
1468;DHT22;727;48.892;9.544;2023-09-12T06:28:33;24.10;92.70
1468;DHT22;727;48.892;9.544;2023-09-12T06:31:00;24.60;91.90
1468;DHT22;727;48.892;9.544;2023-09-12T06:33:26;25.50;91.20
1468;DHT22;727;48.892;9.544;2023-09-12T06:35:54;26.20;89.00
1468;DHT22;727;48.892;9.544;2023-09-12T06:38:25;26.00;87.90
1468;DHT22;727;48.892;9.544;2023-09-12T06:40:51;25.20;89.10
1468;DHT22;727;48.892;9.544;2023-09-12T06:43:18;24.40;91.30
1468;DHT22;727;48.892;9.544;2023-09-12T06:45:45;24.00;91.40
1468;DHT22;727;48.892;9.544;2023-09-12T06:48:13;23.30;92.60
1468;DHT22;727;48.892;9.544;2023-09-12T06:50:39;23.20;93.40
1468;DHT22;727;48.892;9.544;2023-09-12T06:53:06;23.40;93.30
1468;DHT22;727;48.892;9.544;2023-09-12T06:55:39;23.50;93.10
1468;DHT22;727;48.892;9.544;2023-09-12T06:58:13;23.20;93.40
1468;DHT22;727;48.892;9.544;2023-09-12T07:00:41;23.20;93.70
1468;DHT22;727;48.892;9.544;2023-09-12T07:03:07;23.40;94.00
1468;DHT22;727;48.892;9.544;2023-09-12T07:05:36;23.30;94.10
1468;DHT22;727;48.892;9.544;2023-09-12T07:08:04;23.10;94.10
1468;DHT22;727;48.892;9.544;2023-09-12T07:10:32;23.00;94.50
1468;DHT22;727;48.892;9.544;2023-09-12T07:13:04;22.80;94.90
1468;DHT22;727;48.892;9.544;2023-09-12T07:15:30;22.70;95.20
1468;DHT22;727;48.892;9.544;2023-09-12T07:17:58;22.50;95.50
1468;DHT22;727;48.892;9.544;2023-09-12T07:20:25;22.50;95.90
1468;DHT22;727;48.892;9.544;2023-09-12T07:22:52;22.50;95.50
1468;DHT22;727;48.892;9.544;2023-09-12T07:25:19;22.30;95.90
1468;DHT22;727;48.892;9.544;2023-09-12T07:27:49;22.60;96.00
1468;DHT22;727;48.892;9.544;2023-09-12T07:30:17;22.80;96.50
1468;DHT22;727;48.892;9.544;2023-09-12T07:32:44;23.00;96.00
1468;DHT22;727;48.892;9.544;2023-09-12T07:35:12;23.10;95.90
1468;DHT22;727;48.892;9.544;2023-09-12T07:37:39;23.60;95.60
1468;DHT22;727;48.892;9.544;2023-09-12T07:40:07;24.30;94.20
1468;DHT22;727;48.892;9.544;2023-09-12T07:42:35;24.80;93.10
1468;DHT22;727;48.892;9.544;2023-09-12T07:45:02;25.50;92.50
1468;DHT22;727;48.892;9.544;2023-09-12T07:47:31;26.10;91.30
1468;DHT22;727;48.892;9.544;2023-09-12T07:49:59;26.70;90.60
1468;DHT22;727;48.892;9.544;2023-09-12T07:52:26;27.10;88.50
1468;DHT22;727;48.892;9.544;2023-09-12T07:54:59;26.90;87.90
1468;DHT22;727;48.892;9.544;2023-09-12T07:57:26;26.20;88.90
1468;DHT22;727;48.892;9.544;2023-09-12T07:59:54;25.90;90.30
1468;DHT22;727;48.892;9.544;2023-09-12T08:02:21;25.60;90.70
1468;DHT22;727;48.892;9.544;2023-09-12T08:04:50;25.50;91.10
1468;DHT22;727;48.892;9.544;2023-09-12T08:07:17;25.70;91.10
1468;DHT22;727;48.892;9.544;2023-09-12T08:09:51;26.30;91.60
1468;DHT22;727;48.892;9.544;2023-09-12T08:12:19;26.80;88.70
1468;DHT22;727;48.892;9.544;2023-09-12T08:14:47;27.00;86.80
1468;DHT22;727;48.892;9.544;2023-09-12T08:17:14;27.00;85.30
1468;DHT22;727;48.892;9.544;2023-09-12T08:19:41;26.80;86.50
1468;DHT22;727;48.892;9.544;2023-09-12T08:22:11;26.80;87.40
1468;DHT22;727;48.892;9.544;2023-09-12T08:24:38;26.90;87.60
1468;DHT22;727;48.892;9.544;2023-09-12T08:27:06;27.10;85.60
1468;DHT22;727;48.892;9.544;2023-09-12T08:29:35;27.20;85.70
1468;DHT22;727;48.892;9.544;2023-09-12T08:32:02;27.50;85.30
1468;DHT22;727;48.892;9.544;2023-09-12T08:34:29;27.80;84.30
1468;DHT22;727;48.892;9.544;2023-09-12T08:36:56;28.00;84.30
1468;DHT22;727;48.892;9.544;2023-09-12T08:39:26;28.50;83.70
1468;DHT22;727;48.892;9.544;2023-09-12T08:41:53;28.70;82.10
1468;DHT22;727;48.892;9.544;2023-09-12T08:44:21;29.10;81.00
1468;DHT22;727;48.892;9.544;2023-09-12T08:46:48;29.10;80.10
1468;DHT22;727;48.892;9.544;2023-09-12T08:49:15;29.20;79.10
1468;DHT22;727;48.892;9.544;2023-09-12T08:51:42;29.20;78.70
1468;DHT22;727;48.892;9.544;2023-09-12T08:54:10;29.20;78.20
1468;DHT22;727;48.892;9.544;2023-09-12T08:56:40;29.10;80.30
1468;DHT22;727;48.892;9.544;2023-09-12T08:59:09;29.10;78.90
1468;DHT22;727;48.892;9.544;2023-09-12T09:01:36;29.40;77.30
1468;DHT22;727;48.892;9.544;2023-09-12T09:04:05;29.60;77.90
1468;DHT22;727;48.892;9.544;2023-09-12T09:06:33;29.70;78.30
1468;DHT22;727;48.892;9.544;2023-09-12T09:09:04;30.00;77.40
1468;DHT22;727;48.892;9.544;2023-09-12T09:11:31;29.80;78.20
1468;DHT22;727;48.892;9.544;2023-09-12T09:14:00;30.20;76.70
1468;DHT22;727;48.892;9.544;2023-09-12T09:16:28;30.10;76.60
1468;DHT22;727;48.892;9.544;2023-09-12T09:18:56;30.00;75.50
1468;DHT22;727;48.892;9.544;2023-09-12T09:21:25;30.30;76.20
1468;DHT22;727;48.892;9.544;2023-09-12T09:23:56;30.40;76.50
1468;DHT22;727;48.892;9.544;2023-09-12T09:26:22;30.30;75.80
1468;DHT22;727;48.892;9.544;2023-09-12T09:29:06;29.90;77.00
1468;DHT22;727;48.892;9.544;2023-09-12T09:31:34;29.20;79.00
1468;DHT22;727;48.892;9.544;2023-09-12T09:34:10;28.90;81.60
1468;DHT22;727;48.892;9.544;2023-09-12T09:36:41;29.20;81.40
1468;DHT22;727;48.892;9.544;2023-09-12T09:39:08;29.40;80.80
1468;DHT22;727;48.892;9.544;2023-09-12T09:41:36;30.00;79.70
1468;DHT22;727;48.892;9.544;2023-09-12T09:44:05;30.40;76.80
1468;DHT22;727;48.892;9.544;2023-09-12T10:56:19;33.70;63.30
1468;DHT22;727;48.892;9.544;2023-09-12T10:59:08;34.00;63.10
1468;DHT22;727;48.892;9.544;2023-09-12T11:01:36;34.20;62.20
1468;DHT22;727;48.892;9.544;2023-09-12T11:04:36;34.40;62.30
1468;DHT22;727;48.892;9.544;2023-09-12T11:10:26;34.50;61.70
1468;DHT22;727;48.892;9.544;2023-09-12T11:13:17;34.80;60.00
1468;DHT22;727;48.892;9.544;2023-09-12T11:16:12;35.30;60.50
1468;DHT22;727;48.892;9.544;2023-09-12T11:24:43;35.40;59.60
1468;DHT22;727;48.892;9.544;2023-09-12T11:27:25;35.50;60.00
1468;DHT22;727;48.892;9.544;2023-09-12T11:32:31;35.40;61.30
1468;DHT22;727;48.892;9.544;2023-09-12T11:34:59;34.80;64.10
1468;DHT22;727;48.892;9.544;2023-09-12T11:37:27;35.00;63.20
1468;DHT22;727;48.892;9.544;2023-09-12T11:39:55;35.60;60.50
1468;DHT22;727;48.892;9.544;2023-09-12T11:42:23;35.60;62.30
1468;DHT22;727;48.892;9.544;2023-09-12T11:44:51;35.80;60.10
1468;DHT22;727;48.892;9.544;2023-09-12T11:47:18;36.30;58.70
1468;DHT22;727;48.892;9.544;2023-09-12T11:49:48;36.20;58.80
1468;DHT22;727;48.892;9.544;2023-09-12T11:52:15;36.30;59.40
1468;DHT22;727;48.892;9.544;2023-09-12T11:54:43;37.10;57.50
1468;DHT22;727;48.892;9.544;2023-09-12T11:57:28;37.60;56.30
1468;DHT22;727;48.892;9.544;2023-09-12T11:59:57;38.10;55.90
1468;DHT22;727;48.892;9.544;2023-09-12T12:02:25;37.80;55.10
1468;DHT22;727;48.892;9.544;2023-09-12T12:04:55;37.90;54.70
1468;DHT22;727;48.892;9.544;2023-09-12T12:07:25;37.90;54.00
1468;DHT22;727;48.892;9.544;2023-09-12T12:09:52;38.40;51.80
1468;DHT22;727;48.892;9.544;2023-09-12T12:12:19;38.60;50.90
1468;DHT22;727;48.892;9.544;2023-09-12T12:14:46;38.30;48.90
1468;DHT22;727;48.892;9.544;2023-09-12T12:17:13;38.30;49.40
1468;DHT22;727;48.892;9.544;2023-09-12T12:20:01;38.60;48.90
1468;DHT22;727;48.892;9.544;2023-09-12T12:22:32;38.90;48.90
1468;DHT22;727;48.892;9.544;2023-09-12T12:25:05;39.10;48.20
1468;DHT22;727;48.892;9.544;2023-09-12T12:27:35;39.30;47.70
1468;DHT22;727;48.892;9.544;2023-09-12T12:30:03;39.40;46.90
1468;DHT22;727;48.892;9.544;2023-09-12T12:32:30;39.70;45.00
1468;DHT22;727;48.892;9.544;2023-09-12T12:34:56;39.10;44.80
1468;DHT22;727;48.892;9.544;2023-09-12T12:37:28;38.90;45.90
1468;DHT22;727;48.892;9.544;2023-09-12T12:39:56;38.90;45.40
1468;DHT22;727;48.892;9.544;2023-09-12T12:44:58;38.80;44.50
1468;DHT22;727;48.892;9.544;2023-09-12T12:47:25;39.00;44.70
1468;DHT22;727;48.892;9.544;2023-09-12T12:49:53;38.60;46.00
1468;DHT22;727;48.892;9.544;2023-09-12T12:52:24;38.80;45.70
1468;DHT22;727;48.892;9.544;2023-09-12T12:54:51;38.80;43.70
1468;DHT22;727;48.892;9.544;2023-09-12T12:57:20;38.00;44.80
1468;DHT22;727;48.892;9.544;2023-09-12T12:59:47;37.70;45.30
1468;DHT22;727;48.892;9.544;2023-09-12T13:02:14;37.50;47.00
1468;DHT22;727;48.892;9.544;2023-09-12T13:04:41;37.80;46.40
1468;DHT22;727;48.892;9.544;2023-09-12T13:07:07;38.20;43.80
1468;DHT22;727;48.892;9.544;2023-09-12T13:09:37;38.10;44.10
1468;DHT22;727;48.892;9.544;2023-09-12T13:12:05;38.70;43.20
1468;DHT22;727;48.892;9.544;2023-09-12T13:14:34;38.80;42.40
1468;DHT22;727;48.892;9.544;2023-09-12T13:17:01;38.90;43.80
1468;DHT22;727;48.892;9.544;2023-09-12T13:19:28;38.70;42.60
1468;DHT22;727;48.892;9.544;2023-09-12T13:21:55;38.40;43.00
1468;DHT22;727;48.892;9.544;2023-09-12T13:24:22;38.30;43.70
1468;DHT22;727;48.892;9.544;2023-09-12T13:26:51;37.60;44.10
1468;DHT22;727;48.892;9.544;2023-09-12T13:29:19;36.80;43.90
1468;DHT22;727;48.892;9.544;2023-09-12T13:31:45;35.70;47.50
1468;DHT22;727;48.892;9.544;2023-09-12T13:34:12;35.50;47.70
1468;DHT22;727;48.892;9.544;2023-09-12T13:36:39;35.40;47.70
1468;DHT22;727;48.892;9.544;2023-09-12T13:39:07;35.30;45.60
1468;DHT22;727;48.892;9.544;2023-09-12T13:41:33;35.30;46.80
1468;DHT22;727;48.892;9.544;2023-09-12T13:44:02;35.40;47.80
1468;DHT22;727;48.892;9.544;2023-09-12T13:46:28;35.20;45.50
1468;DHT22;727;48.892;9.544;2023-09-12T13:48:55;35.00;45.00
1468;DHT22;727;48.892;9.544;2023-09-12T13:51:25;34.60;48.20
1468;DHT22;727;48.892;9.544;2023-09-12T13:53:52;34.30;45.90
1468;DHT22;727;48.892;9.544;2023-09-12T13:56:19;34.00;49.80
1468;DHT22;727;48.892;9.544;2023-09-12T13:58:46;34.20;49.90
1468;DHT22;727;48.892;9.544;2023-09-12T14:01:16;34.40;48.60
1468;DHT22;727;48.892;9.544;2023-09-12T14:03:43;34.50;48.00
1468;DHT22;727;48.892;9.544;2023-09-12T14:06:10;34.70;47.40
1468;DHT22;727;48.892;9.544;2023-09-12T14:08:37;34.80;47.50
1468;DHT22;727;48.892;9.544;2023-09-12T14:11:03;34.50;47.50
1468;DHT22;727;48.892;9.544;2023-09-12T14:13:30;34.60;47.40
1468;DHT22;727;48.892;9.544;2023-09-12T14:15:57;34.60;49.90
1468;DHT22;727;48.892;9.544;2023-09-12T14:18:25;34.60;50.60
1468;DHT22;727;48.892;9.544;2023-09-12T14:20:52;34.70;49.50
1468;DHT22;727;48.892;9.544;2023-09-12T14:23:19;34.70;49.20
1468;DHT22;727;48.892;9.544;2023-09-12T14:25:46;34.40;49.10
1468;DHT22;727;48.892;9.544;2023-09-12T14:28:13;33.90;50.80
1468;DHT22;727;48.892;9.544;2023-09-12T14:30:40;33.50;52.90
1468;DHT22;727;48.892;9.544;2023-09-12T14:33:10;33.30;51.00
1468;DHT22;727;48.892;9.544;2023-09-12T14:35:40;33.30;52.20
1468;DHT22;727;48.892;9.544;2023-09-12T14:38:07;33.30;52.00
1468;DHT22;727;48.892;9.544;2023-09-12T14:40:34;33.00;51.70
1468;DHT22;727;48.892;9.544;2023-09-12T14:43:01;32.90;51.20
1468;DHT22;727;48.892;9.544;2023-09-12T14:45:28;32.70;52.80
1468;DHT22;727;48.892;9.544;2023-09-12T14:47:56;32.40;52.90
1468;DHT22;727;48.892;9.544;2023-09-12T14:50:23;32.10;55.50
1468;DHT22;727;48.892;9.544;2023-09-12T14:52:52;31.70;57.00
1468;DHT22;727;48.892;9.544;2023-09-12T14:55:19;31.30;58.90
1468;DHT22;727;48.892;9.544;2023-09-12T14:57:46;30.60;62.10
1468;DHT22;727;48.892;9.544;2023-09-12T15:00:13;30.10;64.80
1468;DHT22;727;48.892;9.544;2023-09-12T15:02:40;29.50;66.90
1468;DHT22;727;48.892;9.544;2023-09-12T15:05:08;29.10;68.80
1468;DHT22;727;48.892;9.544;2023-09-12T15:07:35;28.70;71.40
1468;DHT22;727;48.892;9.544;2023-09-12T15:10:05;28.50;72.90
1468;DHT22;727;48.892;9.544;2023-09-12T15:12:32;28.30;73.50
1468;DHT22;727;48.892;9.544;2023-09-12T15:14:59;28.20;73.50
1468;DHT22;727;48.892;9.544;2023-09-12T15:17:25;28.20;74.30
1468;DHT22;727;48.892;9.544;2023-09-12T15:19:52;28.10;75.90
1468;DHT22;727;48.892;9.544;2023-09-12T15:22:20;28.00;77.10
1468;DHT22;727;48.892;9.544;2023-09-12T15:24:48;28.00;77.80
1468;DHT22;727;48.892;9.544;2023-09-12T15:27:16;27.90;78.80
1468;DHT22;727;48.892;9.544;2023-09-12T15:29:42;27.90;78.50
1468;DHT22;727;48.892;9.544;2023-09-12T15:32:09;27.90;79.80
1468;DHT22;727;48.892;9.544;2023-09-12T15:34:36;27.90;80.70
1468;DHT22;727;48.892;9.544;2023-09-12T15:37:07;27.90;82.20
1468;DHT22;727;48.892;9.544;2023-09-12T15:39:34;27.80;83.50
1468;DHT22;727;48.892;9.544;2023-09-12T15:42:01;27.50;85.70
1468;DHT22;727;48.892;9.544;2023-09-12T15:44:29;27.40;85.00
1468;DHT22;727;48.892;9.544;2023-09-12T15:46:56;27.30;85.50
1468;DHT22;727;48.892;9.544;2023-09-12T15:49:23;27.20;86.10
1468;DHT22;727;48.892;9.544;2023-09-12T15:51:50;27.30;86.30
1468;DHT22;727;48.892;9.544;2023-09-12T15:54:17;27.20;85.60
1468;DHT22;727;48.892;9.544;2023-09-12T15:56:44;27.10;86.10
1468;DHT22;727;48.892;9.544;2023-09-12T15:59:12;27.00;86.10
1468;DHT22;727;48.892;9.544;2023-09-12T16:01:42;26.90;86.00
1468;DHT22;727;48.892;9.544;2023-09-12T16:04:09;26.80;86.50
1468;DHT22;727;48.892;9.544;2023-09-12T16:06:36;26.60;87.50
1468;DHT22;727;48.892;9.544;2023-09-12T16:09:03;26.40;88.50
1468;DHT22;727;48.892;9.544;2023-09-12T16:11:31;26.30;90.10
1468;DHT22;727;48.892;9.544;2023-09-12T16:13:58;26.10;90.50
1468;DHT22;727;48.892;9.544;2023-09-12T16:16:25;26.00;90.90
1468;DHT22;727;48.892;9.544;2023-09-12T16:18:54;25.90;91.10
1468;DHT22;727;48.892;9.544;2023-09-12T16:21:21;25.90;91.60
1468;DHT22;727;48.892;9.544;2023-09-12T16:23:53;25.80;91.60
1468;DHT22;727;48.892;9.544;2023-09-12T16:26:21;25.70;92.10
1468;DHT22;727;48.892;9.544;2023-09-12T16:28:48;25.50;92.30
1468;DHT22;727;48.892;9.544;2023-09-12T16:34:22;25.40;92.50
1468;DHT22;727;48.892;9.544;2023-09-12T16:36:55;25.20;92.80
1468;DHT22;727;48.892;9.544;2023-09-12T16:42:35;25.00;94.40
1468;DHT22;727;48.892;9.544;2023-09-12T16:45:24;24.90;95.10
1468;DHT22;727;48.892;9.544;2023-09-12T16:58:27;25.10;95.30
1468;DHT22;727;48.892;9.544;2023-09-12T17:00:56;25.10;95.50
1468;DHT22;727;48.892;9.544;2023-09-12T17:03:24;25.10;95.60
1468;DHT22;727;48.892;9.544;2023-09-12T17:56:40;24.00;99.90
1468;DHT22;727;48.892;9.544;2023-09-12T17:59:09;23.90;99.90
1468;DHT22;727;48.892;9.544;2023-09-12T18:01:35;23.70;99.90
1468;DHT22;727;48.892;9.544;2023-09-12T18:04:04;23.50;99.90
1468;DHT22;727;48.892;9.544;2023-09-12T18:06:31;23.30;99.90
1468;DHT22;727;48.892;9.544;2023-09-12T18:09:02;23.20;99.90
1468;DHT22;727;48.892;9.544;2023-09-12T18:11:31;22.90;99.90
1468;DHT22;727;48.892;9.544;2023-09-12T18:13:59;22.80;99.90
1468;DHT22;727;48.892;9.544;2023-09-12T18:16:26;22.70;99.90
1468;DHT22;727;48.892;9.544;2023-09-12T18:18:55;22.60;99.90
1468;DHT22;727;48.892;9.544;2023-09-12T18:21:28;22.50;99.90
1468;DHT22;727;48.892;9.544;2023-09-12T18:23:57;22.50;99.90
1468;DHT22;727;48.892;9.544;2023-09-12T18:26:23;22.50;99.90
1468;DHT22;727;48.892;9.544;2023-09-12T18:28:51;22.50;99.90
1468;DHT22;727;48.892;9.544;2023-09-12T18:31:22;22.40;99.90
1468;DHT22;727;48.892;9.544;2023-09-12T18:33:52;22.40;99.90
1468;DHT22;727;48.892;9.544;2023-09-12T18:36:19;22.30;99.90
1468;DHT22;727;48.892;9.544;2023-09-12T18:38:47;22.40;99.90
1468;DHT22;727;48.892;9.544;2023-09-12T18:41:18;22.30;99.90
1468;DHT22;727;48.892;9.544;2023-09-12T18:43:45;22.10;99.90
1468;DHT22;727;48.892;9.544;2023-09-12T18:46:12;21.90;99.90
1468;DHT22;727;48.892;9.544;2023-09-12T18:48:41;21.90;99.90
1468;DHT22;727;48.892;9.544;2023-09-12T18:51:09;21.90;99.90
1468;DHT22;727;48.892;9.544;2023-09-12T18:53:35;21.80;99.90
1468;DHT22;727;48.892;9.544;2023-09-12T18:56:03;21.80;99.90